createdAt,value
2018-01-07T00:00:53.002Z,39.92
2018-01-07T00:03:25.722Z,39.43
2018-01-07T00:06:02.778Z,54.30
2018-01-07T00:08:31.834Z,48.55
2018-01-07T00:11:11.942Z,73.20
2018-01-07T00:13:40.984Z,33.37
2018-01-07T00:16:10.045Z,26.90
2018-01-07T00:18:39.095Z,55.95
2018-01-07T00:21:11.525Z,44.58
2018-01-07T00:23:40.570Z,44.17
2018-01-07T00:26:09.615Z,37.47
2018-01-07T00:28:38.646Z,64.62
2018-01-07T00:31:15.178Z,45.17
2018-01-07T00:33:44.217Z,51.67
2018-01-07T00:36:13.265Z,40.47
2018-01-07T00:38:42.325Z,80.15
2018-01-07T00:41:11.405Z,74.77
2018-01-07T00:43:40.433Z,149.05
2018-01-07T00:48:45.655Z,99.47
2018-01-07T00:51:16.673Z,60.40
2018-01-07T00:53:45.722Z,81.27
2018-01-07T00:58:55.825Z,262.50
2018-01-07T01:01:25.858Z,135.83
2018-01-07T01:03:56.914Z,50.97
2018-01-07T01:06:26.861Z,70.80
2018-01-07T01:08:58.998Z,159.48
2018-01-07T01:11:28.056Z,200.87
2018-01-07T01:14:01.909Z,379.27
2018-01-07T01:16:30.954Z,183.70
2018-01-07T01:19:08.800Z,139.60
2018-01-07T01:21:37.842Z,150.17
2018-01-07T01:24:06.889Z,172.05
2018-01-07T01:26:35.954Z,189.80
2018-01-07T01:29:04.998Z,144.43
2018-01-07T01:31:34.050Z,264.45
2018-01-07T01:34:03.186Z,86.03
2018-01-07T01:36:32.211Z,125.68
2018-01-07T01:39:07.223Z,125.93
2018-01-07T01:41:36.242Z,116.28
2018-01-07T01:44:05.277Z,159.07
2018-01-07T01:46:34.374Z,126.83
2018-01-07T01:49:21.333Z,72.13
2018-01-07T01:52:05.568Z,185.63
2018-01-07T01:54:34.706Z,170.70
2018-01-07T01:57:03.767Z,71.33
2018-01-07T01:59:32.814Z,94.90
2018-01-07T02:02:01.855Z,68.53
2018-01-07T02:04:30.899Z,67.40
2018-01-07T02:07:14.930Z,32.00
2018-01-07T02:09:43.980Z,69.93
2018-01-07T02:12:13.050Z,16.57
2018-01-07T02:14:42.106Z,21.98
2018-01-07T02:19:49.299Z,27.65
2018-01-07T02:24:59.516Z,31.75
2018-01-07T02:27:28.635Z,30.70
2018-01-07T02:29:57.676Z,18.77
2018-01-07T02:32:32.494Z,20.50
2018-01-07T02:35:01.533Z,29.93
2018-01-07T02:37:31.530Z,157.07
2018-01-07T02:40:00.592Z,115.10
2018-01-07T02:42:29.675Z,167.85
2018-01-07T02:44:58.717Z,110.20
2018-01-07T02:47:28.737Z,94.32
2018-01-07T02:49:57.786Z,74.17
2018-01-07T02:52:33.089Z,163.90
2018-01-07T02:55:02.107Z,81.90
2018-01-07T02:57:34.458Z,125.28
2018-01-07T03:00:03.508Z,189.33
2018-01-07T03:02:36.860Z,382.42
2018-01-07T03:05:06.218Z,338.33
2018-01-07T03:07:38.951Z,275.48
2018-01-07T03:10:08.019Z,80.43
2018-01-07T03:12:37.079Z,219.55
2018-01-07T03:15:06.134Z,141.43
2018-01-07T03:17:35.164Z,327.77
2018-01-07T03:20:04.207Z,77.20
2018-01-07T03:22:33.276Z,168.77
2018-01-07T03:25:02.358Z,105.83
2018-01-07T03:30:06.585Z,94.40
2018-01-07T03:32:35.618Z,91.50
2018-01-07T03:35:04.662Z,108.00
2018-01-07T03:37:39.192Z,117.53
2018-01-07T03:40:08.247Z,52.70
2018-01-07T03:42:37.286Z,93.25
2018-01-07T03:47:45.422Z,278.25
2018-01-07T03:50:14.490Z,138.67
2018-01-07T03:52:49.267Z,231.82
2018-01-07T03:55:18.310Z,89.20
2018-01-07T04:00:27.210Z,225.62
2018-01-07T04:03:13.134Z,176.75
2018-01-07T04:05:47.797Z,72.87
2018-01-07T04:08:16.813Z,152.00
2018-01-07T04:13:24.003Z,246.68
2018-01-07T04:16:12.782Z,259.87
2018-01-07T04:18:41.832Z,102.80
2018-01-07T04:21:12.785Z,149.32
2018-01-07T04:23:45.967Z,165.70
2018-01-07T04:26:15.915Z,237.20
2018-01-07T04:31:24.035Z,493.55
2018-01-07T04:33:57.011Z,137.00
2018-01-07T04:36:26.098Z,403.58
2018-01-07T04:39:00.385Z,88.23
2018-01-07T04:41:29.429Z,502.67
2018-01-07T04:44:02.366Z,245.43
2018-01-07T04:46:31.414Z,440.40
2018-01-07T04:49:13.534Z,452.20
2018-01-07T04:51:50.085Z,245.10
2018-01-07T04:54:19.122Z,399.20
2018-01-07T04:56:49.078Z,426.45
2018-01-07T04:59:18.192Z,208.53
2018-01-07T05:01:51.186Z,439.95
2018-01-07T05:04:21.127Z,181.33
2018-01-07T05:06:53.900Z,408.08
2018-01-07T05:09:23.850Z,448.88
2018-01-07T05:11:52.909Z,177.87
2018-01-07T05:14:21.949Z,384.85
2018-01-07T05:16:51.045Z,301.80
2018-01-07T05:19:20.066Z,341.60
2018-01-07T05:21:49.131Z,404.98
2018-01-07T05:24:30.645Z,223.70
2018-01-07T05:26:59.709Z,296.45
2018-01-07T05:29:32.759Z,112.17
2018-01-07T05:32:12.519Z,269.13
2018-01-07T05:34:41.574Z,125.03
2018-01-07T05:37:12.584Z,329.13
2018-01-07T05:39:41.657Z,404.38
2018-01-07T05:42:11.673Z,116.33
2018-01-07T05:44:40.721Z,257.85
2018-01-07T05:47:09.834Z,145.30
2018-01-07T05:49:38.874Z,87.53
2018-01-07T05:54:43.134Z,273.50
2018-01-07T05:57:12.338Z,108.93
2018-01-07T05:59:41.394Z,264.48
2018-01-07T06:04:45.695Z,116.47
2018-01-07T06:07:15.666Z,74.50
2018-01-07T06:09:44.710Z,273.65
2018-01-07T06:12:15.348Z,79.33
2018-01-07T06:14:44.473Z,164.70
2018-01-07T06:19:52.932Z,161.32
2018-01-07T06:22:21.982Z,74.37
2018-01-07T06:24:51.034Z,149.68
2018-01-07T06:27:20.133Z,154.85
2018-01-07T06:29:49.146Z,86.63
2018-01-07T06:32:23.370Z,116.30
2018-01-07T06:34:53.314Z,70.53
2018-01-07T06:37:44.759Z,120.20
2018-01-07T06:42:51.998Z,188.05
2018-01-07T06:45:21.053Z,128.07
2018-01-07T06:47:50.129Z,166.88
2018-01-07T06:50:20.083Z,83.20
2018-01-07T06:52:53.342Z,183.35
2018-01-07T06:58:01.585Z,174.73
2018-01-07T07:00:30.705Z,107.43
2018-01-07T07:02:59.688Z,40.50
2018-01-07T07:05:28.723Z,110.10
2018-01-07T07:07:57.766Z,50.53
2018-01-07T07:10:28.769Z,155.15
2018-01-07T07:12:57.825Z,59.03
2018-01-07T07:15:32.297Z,96.18
2018-01-07T07:18:01.327Z,51.57
2018-01-07T07:20:30.370Z,61.83
2018-01-07T07:22:59.412Z,42.87
2018-01-07T07:25:29.367Z,75.03
2018-01-07T07:27:58.402Z,61.77
2018-01-07T07:30:32.353Z,137.48
2018-01-07T07:33:01.406Z,40.97
2018-01-07T07:35:31.422Z,110.57
2018-01-07T07:38:00.480Z,61.57
2018-01-07T07:40:29.530Z,103.85
2018-01-07T07:42:58.569Z,73.70
2018-01-07T07:45:27.618Z,93.95
2018-01-07T07:47:57.562Z,57.23
2018-01-07T07:50:44.172Z,93.22
2018-01-07T07:53:21.544Z,55.20
2018-01-07T07:55:53.535Z,146.73
2018-01-07T07:58:33.419Z,96.13
2018-01-07T08:01:02.475Z,153.05
2018-01-07T08:03:31.517Z,69.20
2018-01-07T08:06:00.572Z,107.72
2018-01-07T08:08:29.605Z,81.60
2018-01-07T08:10:58.642Z,95.65
2018-01-07T08:13:27.686Z,165.48
2018-01-07T08:15:56.726Z,51.43
2018-01-07T08:18:31.108Z,99.47
2018-01-07T08:21:08.033Z,40.80
2018-01-07T08:23:49.969Z,51.77
2018-01-07T08:26:19.025Z,21.13
2018-01-07T08:29:04.272Z,76.60
2018-01-07T08:31:33.289Z,41.40
2018-01-07T08:34:03.275Z,65.47
2018-01-07T08:36:32.333Z,40.10
2018-01-07T08:39:05.726Z,55.60
2018-01-07T08:41:35.740Z,49.37
2018-01-07T08:44:12.214Z,30.80
2018-01-07T08:46:42.217Z,26.43
2018-01-07T08:49:14.890Z,36.77
2018-01-07T08:51:43.950Z,25.63
2018-01-07T08:54:12.996Z,26.90
2018-01-07T08:56:42.153Z,22.03
2018-01-07T08:59:14.362Z,23.57
2018-01-07T09:01:49.432Z,26.13
2018-01-07T09:04:18.453Z,23.97
2018-01-07T09:06:47.510Z,33.75
2018-01-07T09:09:16.538Z,22.93
2018-01-07T09:11:48.782Z,18.20
2018-01-07T09:14:17.836Z,21.80
2018-01-07T09:16:46.862Z,27.20
2018-01-07T09:19:15.928Z,26.10
2018-01-07T09:21:44.942Z,33.17
2018-01-07T09:24:17.215Z,29.50
2018-01-07T09:26:46.238Z,27.27
2018-01-07T09:29:19.002Z,27.13
2018-01-07T09:31:48.957Z,27.40
2018-01-07T09:34:21.302Z,28.17
2018-01-07T09:36:50.383Z,27.27
2018-01-07T09:39:19.393Z,25.87
2018-01-07T09:41:48.450Z,28.90
2018-01-07T09:44:19.429Z,37.27
2018-01-07T09:46:48.477Z,27.43
2018-01-07T09:49:31.524Z,26.97
2018-01-07T09:54:40.670Z,30.15
2018-01-07T09:57:10.613Z,23.83
2018-01-07T09:59:39.667Z,23.27
2018-01-07T10:04:44.389Z,20.65
2018-01-07T10:07:15.351Z,18.53
2018-01-07T10:09:45.305Z,15.03
2018-01-07T10:14:50.646Z,17.58
2018-01-07T10:17:38.710Z,16.87
2018-01-07T10:20:08.754Z,15.93
2018-01-07T10:22:37.794Z,16.23
2018-01-07T10:25:15.527Z,15.37
2018-01-07T10:27:44.589Z,16.00
2018-01-07T10:30:13.624Z,14.17
2018-01-07T10:37:53.178Z,21.90
2018-01-07T10:40:30.315Z,21.37
2018-01-07T10:42:59.364Z,16.63
2018-01-07T10:45:28.423Z,15.73
2018-01-07T10:47:57.458Z,16.10
2018-01-07T10:53:15.763Z,21.90
2018-01-07T10:55:44.803Z,16.90
2018-01-07T10:58:15.804Z,16.33
2018-01-07T11:00:50.327Z,17.43
2018-01-07T11:03:19.390Z,27.23
2018-01-07T11:05:53.842Z,23.93
2018-01-07T11:08:22.890Z,22.73
2018-01-07T11:11:00.433Z,28.37
2018-01-07T11:13:37.181Z,24.27
2018-01-07T11:16:06.254Z,22.50
2018-01-07T11:18:37.222Z,25.17
2018-01-07T11:21:06.275Z,24.47
2018-01-07T11:23:35.345Z,42.30
2018-01-07T11:26:04.378Z,22.60
2018-01-07T11:28:33.438Z,20.37
2018-01-07T11:31:03.432Z,21.53
2018-01-07T11:33:32.469Z,19.30
2018-01-07T11:36:03.410Z,22.53
2018-01-07T11:38:32.450Z,23.20
2018-01-07T11:41:03.444Z,23.77
2018-01-07T11:43:37.064Z,24.73
2018-01-07T11:46:06.093Z,22.13
2018-01-07T11:48:52.671Z,22.03
2018-01-07T11:51:21.718Z,22.20
2018-01-07T11:56:27.437Z,25.50
2018-01-07T11:59:03.891Z,22.87
2018-01-07T12:01:33.936Z,22.13
2018-01-07T12:04:03.011Z,20.00
2018-01-07T12:06:35.374Z,20.90
2018-01-07T12:09:04.414Z,18.70
2018-01-07T12:14:08.638Z,23.70
2018-01-07T12:19:12.965Z,24.30
2018-01-07T12:21:41.978Z,18.73
2018-01-07T12:24:11.028Z,19.70
2018-01-07T12:29:15.306Z,22.10
2018-01-07T12:31:47.653Z,21.20
2018-01-07T12:34:16.702Z,19.60
2018-01-07T12:36:45.775Z,19.17
2018-01-07T12:39:16.837Z,19.50
2018-01-07T12:41:45.869Z,17.77
2018-01-07T12:44:14.921Z,16.97
2018-01-07T12:46:43.958Z,23.03
2018-01-07T12:49:21.282Z,20.43
2018-01-07T12:51:55.103Z,22.20
2018-01-07T12:54:28.864Z,19.63
2018-01-07T12:59:33.070Z,25.67
2018-01-07T13:04:37.803Z,22.08
2018-01-07T13:07:14.383Z,22.60
2018-01-07T13:09:43.423Z,23.27
2018-01-07T13:12:12.494Z,20.20
2018-01-07T13:14:42.626Z,17.43
2018-01-07T13:17:14.847Z,20.20
2018-01-07T13:19:43.898Z,19.40
2018-01-07T13:22:17.356Z,18.33
2018-01-07T13:24:50.146Z,20.03
2018-01-07T13:27:25.038Z,19.07
2018-01-07T13:32:31.381Z,23.10
2018-01-07T13:35:04.126Z,23.42
2018-01-07T13:37:34.483Z,18.97
2018-01-07T13:40:26.515Z,22.70
2018-01-07T13:42:59.663Z,20.70
2018-01-07T13:45:28.747Z,19.67
2018-01-07T13:48:02.882Z,16.57
2018-01-07T13:50:32.430Z,21.83
2018-01-07T13:53:13.153Z,19.30
2018-01-07T13:55:46.701Z,20.83
2018-01-07T13:58:18.340Z,19.57
2018-01-07T14:00:55.620Z,20.90
2018-01-07T14:03:26.569Z,22.60
2018-01-07T14:05:58.639Z,19.33
2018-01-07T14:08:39.398Z,17.40
2018-01-07T14:11:08.438Z,16.07
2018-01-07T14:13:37.473Z,19.13
2018-01-07T14:16:07.284Z,19.30
2018-01-07T14:18:42.335Z,21.47
2018-01-07T14:23:46.659Z,20.70
2018-01-07T14:26:16.605Z,15.80
2018-01-07T14:28:45.650Z,16.23
2018-01-07T14:31:15.198Z,18.23
2018-01-07T14:33:44.285Z,18.30
2018-01-07T14:36:13.423Z,18.30
2018-01-07T14:38:43.111Z,16.93
2018-01-07T14:41:12.292Z,14.70
2018-01-07T14:43:41.334Z,14.27
2018-01-07T14:46:20.102Z,17.48
2018-01-07T14:48:53.494Z,18.47
2018-01-07T14:51:24.652Z,15.00
2018-01-07T14:53:57.656Z,18.50
2018-01-07T14:56:26.773Z,16.47
2018-01-07T14:58:55.863Z,17.13
2018-01-07T15:01:25.126Z,17.17
2018-01-07T15:03:54.173Z,19.65
2018-01-07T15:06:34.140Z,16.33
2018-01-07T15:09:07.604Z,19.20
2018-01-07T15:11:36.712Z,17.10
2018-01-07T15:14:14.303Z,19.37
2018-01-07T15:16:44.287Z,17.37
2018-01-07T15:21:49.026Z,18.17
2018-01-07T15:24:18.874Z,17.30
2018-01-07T15:26:47.886Z,14.10
2018-01-07T15:29:17.038Z,15.97
2018-01-07T15:34:21.468Z,17.00
2018-01-07T15:36:55.969Z,20.03
2018-01-07T15:39:25.124Z,19.07
2018-01-07T15:41:55.182Z,36.67
2018-01-07T15:44:29.453Z,20.50
2018-01-07T15:46:58.589Z,14.47
2018-01-07T15:49:27.716Z,16.93
2018-01-07T15:51:59.619Z,15.53
2018-01-07T15:54:28.663Z,16.10
2018-01-07T15:56:57.713Z,16.43
2018-01-07T15:59:29.212Z,16.97
2018-01-07T16:04:37.445Z,28.55
2018-01-07T16:07:07.416Z,23.27
2018-01-07T16:12:12.806Z,24.55
2018-01-07T16:14:53.251Z,25.67
2018-01-07T16:17:24.344Z,19.20
2018-01-07T16:19:55.284Z,19.17
2018-01-07T16:22:27.323Z,20.90
2018-01-07T16:24:56.356Z,18.33
2018-01-07T16:27:25.404Z,20.40
2018-01-07T16:32:30.655Z,23.35
2018-01-07T16:35:07.477Z,24.93
2018-01-07T16:37:50.250Z,26.73
2018-01-07T16:40:19.658Z,19.33
2018-01-07T16:43:10.874Z,20.70
2018-01-07T16:45:39.971Z,19.67
2018-01-07T16:48:11.046Z,20.13
2018-01-07T16:50:40.673Z,20.30
2018-01-07T16:53:09.712Z,17.90
2018-01-07T16:55:38.750Z,19.37
2018-01-07T16:58:12.383Z,19.57
2018-01-07T17:00:41.510Z,20.07
2018-01-07T17:05:48.067Z,23.45
2018-01-07T17:08:20.354Z,26.17
2018-01-07T17:10:49.833Z,26.12
2018-01-07T17:13:19.401Z,23.70
2018-01-07T17:15:48.938Z,23.40
2018-01-07T17:28:44.648Z,25.50
2018-01-07T17:31:20.842Z,24.63
2018-01-07T17:33:50.392Z,24.03
2018-01-07T17:36:27.730Z,26.43
2018-01-07T17:38:56.773Z,28.90
2018-01-07T17:41:28.790Z,22.30
2018-01-07T17:43:57.900Z,26.90
2018-01-07T17:51:40.249Z,29.73
2018-01-07T17:54:09.306Z,26.13
2018-01-07T17:56:38.372Z,27.70
2018-01-07T17:59:08.302Z,28.50
2018-01-07T18:04:15.676Z,31.15
2018-01-07T18:09:33.822Z,32.00
2018-01-07T18:12:02.875Z,26.87
2018-01-07T18:14:36.267Z,27.63
2018-01-07T18:17:05.522Z,29.23
2018-01-07T18:19:35.487Z,28.57
2018-01-07T18:22:04.925Z,31.50
2018-01-07T18:24:34.865Z,28.67
2018-01-07T18:27:03.932Z,29.93
2018-01-07T18:29:43.564Z,29.17
2018-01-07T18:32:13.078Z,30.03
2018-01-07T18:34:43.461Z,34.55
2018-01-07T18:37:13.526Z,29.10
2018-01-07T18:39:43.605Z,31.73
2018-01-07T18:42:13.810Z,31.40
2018-01-07T18:44:52.723Z,30.33
2018-01-07T18:47:27.133Z,32.23
2018-01-07T18:49:57.166Z,26.27
2018-01-07T18:55:01.948Z,33.30
2018-01-07T19:00:07.484Z,32.20
2018-01-07T19:02:48.479Z,30.33
2018-01-07T19:05:19.270Z,27.17
2018-01-07T19:07:51.809Z,28.20
2018-01-07T19:15:38.656Z,35.67
2018-01-07T19:18:08.384Z,33.33
2018-01-07T19:20:41.152Z,29.17
2018-01-07T19:23:10.252Z,33.90
2018-01-07T19:25:39.384Z,32.40
2018-01-07T19:28:08.577Z,29.70
2018-01-07T19:30:39.148Z,26.43
2018-01-07T19:33:08.690Z,28.40
2018-01-07T19:35:37.971Z,32.75
2018-01-07T19:38:17.187Z,32.10
2018-01-07T19:40:47.634Z,32.30
2018-01-07T19:43:17.702Z,31.33
2018-01-07T19:45:48.120Z,29.67
2018-01-07T19:48:17.194Z,27.50
2018-01-07T19:50:53.717Z,28.50
2018-01-07T19:53:22.758Z,35.90
2018-01-07T19:55:57.528Z,30.20
2018-01-07T19:58:26.806Z,33.60
2018-01-07T20:03:31.264Z,33.10
2018-01-07T20:08:35.746Z,32.60
2018-01-07T20:11:10.363Z,28.13
2018-01-07T20:13:39.640Z,29.73
2018-01-07T20:16:20.100Z,28.70
2018-01-07T20:18:51.525Z,28.50
2018-01-07T20:21:21.070Z,25.67
2018-01-07T20:23:51.594Z,27.67
2018-01-07T20:26:20.861Z,31.33
2018-01-07T20:28:51.991Z,27.17
2018-01-07T20:31:22.089Z,28.13
2018-01-07T20:33:53.318Z,26.70
2018-01-07T20:36:30.214Z,28.57
2018-01-07T20:39:00.521Z,28.90
2018-01-07T20:41:31.868Z,31.90
2018-01-07T20:44:07.872Z,31.10
2018-01-07T20:46:37.038Z,32.07
2018-01-07T20:49:08.468Z,33.65
2018-01-07T20:51:40.057Z,31.70
2018-01-07T20:59:26.668Z,32.30
2018-01-07T21:04:32.411Z,33.08
2018-01-07T21:07:04.260Z,31.27
2018-01-07T21:09:35.484Z,28.00
2018-01-07T21:14:42.169Z,30.98
2018-01-07T21:17:11.485Z,33.03
2018-01-07T21:19:42.825Z,31.20
2018-01-07T21:22:22.738Z,29.60
2018-01-07T21:24:51.792Z,27.50
2018-01-07T21:27:20.818Z,34.08
2018-01-07T21:29:50.894Z,28.73
2018-01-07T21:32:19.959Z,33.38
2018-01-07T21:34:48.998Z,31.10
2018-01-07T21:37:18.943Z,28.30
2018-01-07T21:39:47.974Z,28.93
2018-01-07T21:42:17.227Z,32.13
2018-01-07T21:44:47.494Z,33.05
2018-01-07T21:47:30.552Z,31.50
2018-01-07T21:50:00.983Z,28.40
2018-01-07T21:55:05.812Z,34.72
2018-01-07T22:03:24.045Z,34.17
2018-01-07T22:06:02.115Z,38.10
2018-01-07T22:08:31.191Z,33.93
2018-01-07T22:11:00.388Z,25.07
2018-01-07T22:13:32.986Z,27.97
2018-01-07T22:16:02.241Z,33.92
2018-01-07T22:18:39.334Z,32.47
2018-01-07T22:21:22.796Z,34.00
2018-01-07T22:23:52.945Z,30.83
2018-01-07T22:26:32.760Z,34.60
2018-01-07T22:29:01.804Z,33.27
2018-01-07T22:31:35.250Z,30.03
2018-01-07T22:34:04.458Z,33.70
2018-01-07T22:36:47.627Z,30.33
2018-01-07T22:39:16.802Z,32.73
2018-01-07T22:42:01.230Z,34.07
2018-01-07T22:44:35.586Z,31.50
2018-01-07T22:47:04.636Z,31.40
2018-01-07T22:49:33.667Z,32.77
2018-01-07T22:52:03.674Z,31.57
2018-01-07T22:54:33.710Z,30.63
2018-01-07T22:57:02.748Z,32.47
2018-01-07T22:59:31.816Z,31.73
2018-01-07T23:02:00.843Z,32.40
2018-01-07T23:04:35.071Z,34.47
2018-01-07T23:07:04.102Z,31.52
2018-01-07T23:09:46.528Z,31.70
2018-01-07T23:12:15.546Z,32.30
2018-01-07T23:14:47.663Z,27.27
2018-01-07T23:17:24.469Z,32.23
2018-01-07T23:19:57.298Z,32.30
2018-01-07T23:22:26.343Z,31.20
2018-01-07T23:24:55.405Z,35.38
2018-01-07T23:27:30.041Z,35.20
2018-01-07T23:29:59.095Z,29.20
2018-01-07T23:32:41.142Z,29.83
2018-01-07T23:35:10.211Z,34.70
2018-01-07T23:37:39.253Z,35.08
2018-01-07T23:40:08.896Z,36.45
2018-01-07T23:42:37.907Z,33.23
2018-01-07T23:45:06.952Z,31.90
2018-01-07T23:47:36.067Z,35.72
2018-01-07T23:50:05.086Z,31.77
2018-01-07T23:52:34.120Z,36.80
2018-01-07T23:55:08.171Z,36.47
2018-01-07T23:57:37.310Z,36.78
